createdAt,value
2023-04-24T00:01:23.288Z,14.82
2023-04-24T00:03:50.284Z,13.65
2023-04-24T00:06:18.431Z,12.82
2023-04-24T00:08:45.422Z,12.40
2023-04-24T00:11:12.330Z,12.00
2023-04-24T00:13:39.746Z,13.70
2023-04-24T00:16:06.947Z,15.90
2023-04-24T00:18:33.985Z,13.75
2023-04-24T00:21:01.055Z,12.82
2023-04-24T00:23:27.923Z,15.27
2023-04-24T00:25:54.796Z,12.20
2023-04-24T00:28:21.664Z,13.57
2023-04-24T00:30:48.565Z,15.05
2023-04-24T00:33:15.982Z,12.30
2023-04-24T00:35:42.918Z,13.40
2023-04-24T00:38:09.783Z,11.85
2023-04-24T00:40:36.662Z,15.55
2023-04-24T00:43:03.575Z,12.93
2023-04-24T00:45:32.422Z,12.57
2023-04-24T00:47:59.500Z,16.23
2023-04-24T00:50:27.599Z,15.68
2023-04-24T00:52:54.513Z,16.15
2023-04-24T00:55:21.555Z,15.68
2023-04-24T00:57:48.910Z,15.40
2023-04-24T01:00:17.608Z,13.85
2023-04-24T01:02:47.572Z,13.93
2023-04-24T01:05:16.192Z,14.90
2023-04-24T01:07:46.606Z,14.80
2023-04-24T01:10:14.639Z,16.27
2023-04-24T01:12:41.688Z,16.37
2023-04-24T01:15:09.666Z,14.35
2023-04-24T01:17:37.132Z,16.15
2023-04-24T01:20:06.801Z,14.07
2023-04-24T01:22:36.529Z,14.77
2023-04-24T01:25:04.649Z,12.65
2023-04-24T01:27:31.709Z,22.52
2023-04-24T01:29:58.764Z,20.98
2023-04-24T01:32:26.522Z,14.32
2023-04-24T01:34:53.728Z,14.50
2023-04-24T01:37:20.673Z,15.60
2023-04-24T01:39:47.596Z,15.18
2023-04-24T01:42:15.833Z,16.37
2023-04-24T01:44:43.168Z,16.25
2023-04-24T01:47:10.224Z,14.87
2023-04-24T01:49:39.198Z,19.30
2023-04-24T01:52:06.302Z,18.37
2023-04-24T01:54:33.294Z,15.20
2023-04-24T01:57:02.205Z,17.62
2023-04-24T01:59:29.437Z,17.10
2023-04-24T02:01:56.346Z,17.12
2023-04-24T02:04:23.571Z,15.35
2023-04-24T02:06:50.524Z,17.20
2023-04-24T02:09:17.422Z,14.98
2023-04-24T02:11:44.304Z,17.17
2023-04-24T02:14:11.238Z,16.60
2023-04-24T02:16:38.122Z,17.75
2023-04-24T02:19:05.217Z,14.65
2023-04-24T02:21:32.321Z,16.27
2023-04-24T02:23:59.181Z,14.48
2023-04-24T02:26:26.221Z,18.02
2023-04-24T02:28:53.170Z,16.30
2023-04-24T02:31:20.056Z,17.20
2023-04-24T02:33:46.933Z,18.25
2023-04-24T02:36:14.492Z,20.85
2023-04-24T02:38:41.406Z,16.00
2023-04-24T02:41:08.405Z,16.60
2023-04-24T02:43:35.414Z,16.75
2023-04-24T02:46:02.497Z,17.10
2023-04-24T02:48:29.615Z,17.17
2023-04-24T02:50:56.564Z,19.10
2023-04-24T02:53:24.476Z,16.35
2023-04-24T02:55:51.425Z,14.65
2023-04-24T02:58:18.633Z,16.02
2023-04-24T03:00:45.732Z,18.15
2023-04-24T03:03:12.744Z,16.20
2023-04-24T03:05:39.829Z,16.80
2023-04-24T03:08:07.417Z,14.70
2023-04-24T03:10:34.290Z,16.95
2023-04-24T03:13:01.168Z,15.73
2023-04-24T03:15:28.186Z,16.67
2023-04-24T03:17:56.790Z,16.67
2023-04-24T03:20:24.076Z,18.27
2023-04-24T03:22:51.086Z,15.63
2023-04-24T03:25:17.991Z,14.40
2023-04-24T03:27:45.007Z,16.25
2023-04-24T03:30:12.068Z,15.07
2023-04-24T03:32:40.606Z,14.43
2023-04-24T03:35:09.490Z,18.02
2023-04-24T03:37:36.434Z,17.35
2023-04-24T03:40:03.712Z,19.65
2023-04-24T03:42:30.816Z,15.15
2023-04-24T03:44:57.675Z,16.10
2023-04-24T03:47:24.681Z,15.07
2023-04-24T03:49:51.605Z,15.63
2023-04-24T03:52:18.453Z,15.15
2023-04-24T03:54:45.436Z,15.02
2023-04-24T03:57:12.343Z,16.90
2023-04-24T03:59:39.240Z,15.68
2023-04-24T04:02:06.254Z,16.42
2023-04-24T04:04:33.364Z,14.75
2023-04-24T04:07:02.430Z,17.80
2023-04-24T04:09:29.551Z,18.40
2023-04-24T04:11:56.409Z,18.60
2023-04-24T04:14:24.388Z,17.65
2023-04-24T04:16:53.955Z,17.27
2023-04-24T04:19:21.769Z,18.20
2023-04-24T04:21:53.293Z,15.68
2023-04-24T04:24:21.959Z,16.95
2023-04-24T04:26:48.885Z,16.70
2023-04-24T04:29:18.472Z,15.50
2023-04-24T04:31:46.168Z,14.00
2023-04-24T04:34:13.798Z,17.20
2023-04-24T04:36:41.348Z,16.20
2023-04-24T04:39:08.741Z,18.40
2023-04-24T04:41:41.623Z,16.25
2023-04-24T04:44:10.016Z,15.80
2023-04-24T04:46:38.498Z,16.33
2023-04-24T04:49:05.790Z,16.48
2023-04-24T04:51:33.112Z,24.52
2023-04-24T04:53:59.938Z,17.67
2023-04-24T04:56:27.298Z,15.95
2023-04-24T04:58:54.358Z,17.70
2023-04-24T05:01:21.329Z,15.73
2023-04-24T05:03:48.284Z,15.60
2023-04-24T05:06:15.279Z,15.43
2023-04-24T05:08:42.180Z,19.62
2023-04-24T05:11:09.146Z,16.30
2023-04-24T05:13:40.950Z,16.37
2023-04-24T05:16:08.400Z,16.87
2023-04-24T05:18:35.442Z,19.27
2023-04-24T05:21:02.582Z,17.60
2023-04-24T05:23:29.555Z,17.25
2023-04-24T05:25:56.499Z,18.35
2023-04-24T05:28:23.505Z,19.10
2023-04-24T05:30:50.935Z,15.90
2023-04-24T05:33:17.814Z,15.85
2023-04-24T05:35:47.761Z,15.50
2023-04-24T05:38:15.483Z,19.90
2023-04-24T05:40:42.375Z,18.12
2023-04-24T05:43:09.242Z,17.25
2023-04-24T05:45:37.231Z,14.45
2023-04-24T05:48:04.843Z,13.65
2023-04-24T05:50:31.812Z,15.48
2023-04-24T05:53:03.382Z,17.55
2023-04-24T05:55:31.665Z,15.05
2023-04-24T05:57:58.686Z,16.95
2023-04-24T06:00:26.035Z,15.52
2023-04-24T06:02:54.318Z,14.70
2023-04-24T06:05:21.699Z,16.37
2023-04-24T06:07:49.264Z,14.60
2023-04-24T06:10:16.633Z,15.57
2023-04-24T06:12:43.612Z,15.07
2023-04-24T06:15:11.003Z,15.20
2023-04-24T06:17:37.998Z,16.00
2023-04-24T06:20:06.849Z,14.23
2023-04-24T06:22:33.891Z,13.45
2023-04-24T06:25:01.869Z,9.15
2023-04-24T06:27:28.716Z,9.50
2023-04-24T06:29:56.464Z,10.10
2023-04-24T06:32:26.717Z,9.55
2023-04-24T06:34:54.057Z,10.30
2023-04-24T06:37:24.131Z,10.23
2023-04-24T06:39:52.024Z,9.88
2023-04-24T06:42:18.934Z,11.93
2023-04-24T06:44:46.425Z,9.75
2023-04-24T06:47:14.811Z,9.38
2023-04-24T06:49:42.117Z,8.48
2023-04-24T06:52:09.452Z,10.30
2023-04-24T06:54:36.335Z,10.10
2023-04-24T06:57:04.278Z,10.02
2023-04-24T06:59:31.560Z,8.68
2023-04-24T07:01:58.827Z,8.80
2023-04-24T07:04:26.677Z,8.75
2023-04-24T07:06:56.998Z,9.05
2023-04-24T07:09:42.840Z,9.63
2023-04-24T07:12:11.847Z,9.27
2023-04-24T07:14:41.076Z,9.32
2023-04-24T07:17:07.952Z,9.00
2023-04-24T07:19:52.934Z,8.73
2023-04-24T07:22:19.812Z,10.23
2023-04-24T07:24:46.786Z,8.85
2023-04-24T07:27:16.032Z,9.18
2023-04-24T07:29:43.449Z,10.05
2023-04-24T07:32:10.540Z,8.93
2023-04-24T07:34:37.549Z,9.25
2023-04-24T07:37:04.484Z,13.48
2023-04-24T07:39:31.388Z,8.90
2023-04-24T07:42:00.226Z,10.30
2023-04-24T07:44:27.495Z,9.63
2023-04-24T07:46:54.789Z,8.93
2023-04-24T07:49:21.985Z,11.93
2023-04-24T07:51:48.937Z,9.57
2023-04-24T07:54:16.010Z,9.00
2023-04-24T07:56:44.172Z,8.18
2023-04-24T07:59:31.229Z,7.55
2023-04-24T08:01:58.168Z,9.20
2023-04-24T08:04:25.245Z,8.05
2023-04-24T08:06:52.283Z,7.93
2023-04-24T08:09:19.196Z,8.25
2023-04-24T08:11:46.314Z,7.80
2023-04-24T08:14:14.460Z,11.52
2023-04-24T08:16:41.551Z,7.28
2023-04-24T08:19:09.648Z,9.05
2023-04-24T08:21:36.513Z,8.93
2023-04-24T08:24:06.345Z,8.20
2023-04-24T08:26:33.270Z,8.25
2023-04-24T08:29:01.216Z,8.75
2023-04-24T08:31:28.255Z,11.05
2023-04-24T08:33:55.345Z,8.70
2023-04-24T08:36:28.260Z,15.77
2023-04-24T08:39:08.329Z,6.78
2023-04-24T08:41:35.912Z,8.60
2023-04-24T08:44:03.550Z,9.00
2023-04-24T08:46:31.808Z,8.07
2023-04-24T08:48:59.194Z,8.10
2023-04-24T08:51:27.531Z,7.85
2023-04-24T08:53:56.108Z,7.35
2023-04-24T08:56:24.575Z,9.52
2023-04-24T08:58:52.837Z,8.75
2023-04-24T09:01:21.139Z,8.25
2023-04-24T09:03:50.967Z,8.30
2023-04-24T09:06:19.367Z,7.62
2023-04-24T09:08:47.169Z,8.07
2023-04-24T09:11:14.046Z,6.12
2023-04-24T09:13:41.027Z,9.35
2023-04-24T09:16:07.959Z,7.68
2023-04-24T09:18:36.382Z,10.55
2023-04-24T09:21:06.093Z,7.93
2023-04-24T09:23:33.393Z,8.75
2023-04-24T09:26:01.559Z,10.77
2023-04-24T09:28:36.625Z,7.65
2023-04-24T09:31:09.344Z,8.55
2023-04-24T09:33:36.764Z,9.27
2023-04-24T09:36:04.229Z,7.07
2023-04-24T09:38:35.661Z,7.35
2023-04-24T09:41:14.879Z,17.17
2023-04-24T09:43:41.779Z,9.68
2023-04-24T09:46:10.767Z,7.60
2023-04-24T09:48:38.994Z,8.52
2023-04-24T09:51:08.347Z,9.32
2023-04-24T09:53:35.197Z,9.18
2023-04-24T09:56:09.432Z,7.68
2023-04-24T09:58:37.359Z,7.05
2023-04-24T10:01:04.673Z,8.07
2023-04-24T10:03:32.851Z,7.30
2023-04-24T10:06:03.404Z,8.88
2023-04-24T10:08:37.351Z,7.93
2023-04-24T10:11:04.415Z,7.78
2023-04-24T10:13:31.821Z,8.48
2023-04-24T10:16:00.378Z,9.23
2023-04-24T10:18:27.824Z,8.43
2023-04-24T10:20:56.158Z,7.47
2023-04-24T10:23:24.337Z,8.82
2023-04-24T10:25:52.388Z,9.73
2023-04-24T10:28:20.655Z,13.38
2023-04-24T10:30:47.985Z,8.38
2023-04-24T10:33:15.363Z,7.90
2023-04-24T10:35:44.161Z,10.40
2023-04-24T10:38:14.259Z,9.32
2023-04-24T10:40:41.508Z,7.95
2023-04-24T10:43:12.067Z,9.02
2023-04-24T10:45:40.544Z,7.85
2023-04-24T10:48:12.490Z,8.15
2023-04-24T10:50:48.224Z,7.87
2023-04-24T10:53:24.413Z,8.48
2023-04-24T10:55:52.443Z,10.32
2023-04-24T10:58:26.284Z,9.57
2023-04-24T11:01:00.957Z,8.43
2023-04-24T11:03:30.165Z,9.15
2023-04-24T11:05:59.880Z,8.32
2023-04-24T11:08:31.709Z,10.13
2023-04-24T11:11:11.035Z,8.77
2023-04-24T11:13:57.082Z,9.45
2023-04-24T11:16:35.851Z,8.77
2023-04-24T11:19:18.228Z,16.52
2023-04-24T11:21:48.744Z,9.30
2023-04-24T11:24:39.457Z,8.93
2023-04-24T11:27:11.108Z,10.40
2023-04-24T11:29:46.598Z,9.88
2023-04-24T11:32:26.010Z,10.23
2023-04-24T11:34:55.818Z,8.73
2023-04-24T11:37:24.641Z,11.07
2023-04-24T11:39:53.158Z,10.23
2023-04-24T11:42:21.169Z,13.30
2023-04-24T11:44:48.819Z,12.13
2023-04-24T11:47:15.759Z,9.82
2023-04-24T11:49:42.820Z,11.12
2023-04-24T11:52:09.725Z,8.40
2023-04-24T11:54:36.594Z,8.70
2023-04-24T11:57:07.769Z,10.85
2023-04-24T11:59:39.076Z,10.98
2023-04-24T12:02:07.215Z,11.30
2023-04-24T12:04:42.537Z,10.05
2023-04-24T12:07:09.884Z,10.00
2023-04-24T12:09:48.026Z,9.80
2023-04-24T12:12:16.733Z,10.70
2023-04-24T12:14:49.594Z,11.23
2023-04-24T12:17:17.760Z,9.68
2023-04-24T12:19:48.967Z,8.68
2023-04-24T12:22:16.201Z,9.15
2023-04-24T12:25:06.231Z,9.98
2023-04-24T12:27:36.413Z,12.25
2023-04-24T12:30:06.137Z,10.23
2023-04-24T12:32:33.412Z,12.13
2023-04-24T12:35:00.375Z,9.65
2023-04-24T12:37:28.049Z,11.35
2023-04-24T12:40:09.620Z,9.43
2023-04-24T12:42:37.588Z,11.32
2023-04-24T12:45:06.910Z,11.55
2023-04-24T12:47:34.822Z,11.68
2023-04-24T12:50:02.360Z,11.63
2023-04-24T12:52:30.771Z,9.82
2023-04-24T12:54:59.625Z,10.07
2023-04-24T12:57:28.010Z,10.73
2023-04-24T12:59:59.634Z,10.52
2023-04-24T13:02:28.859Z,11.52
2023-04-24T13:04:56.068Z,11.05
2023-04-24T13:07:22.954Z,10.98
2023-04-24T13:09:51.003Z,12.48
2023-04-24T13:12:18.284Z,10.00
2023-04-24T13:14:46.667Z,11.23
2023-04-24T13:17:14.195Z,8.65
2023-04-24T13:19:42.814Z,8.52
2023-04-24T13:22:11.326Z,9.30
2023-04-24T13:24:39.820Z,10.60
2023-04-24T13:27:07.066Z,10.60
2023-04-24T13:29:33.988Z,8.63
2023-04-24T13:32:01.285Z,9.38
2023-04-24T13:34:28.461Z,4.62
2023-04-24T13:36:57.143Z,3.22
2023-04-24T13:39:25.121Z,2.83
2023-04-24T13:41:52.099Z,2.37
2023-04-24T13:44:20.274Z,2.22
2023-04-24T13:46:48.657Z,3.40
2023-04-24T13:49:16.367Z,2.28
2023-04-24T13:51:43.935Z,2.55
2023-04-24T13:54:10.886Z,2.75
2023-04-24T13:56:37.797Z,3.03
2023-04-24T13:59:04.718Z,3.30
2023-04-24T14:01:32.059Z,5.45
2023-04-24T14:03:59.184Z,2.60
2023-04-24T14:06:26.979Z,2.20
2023-04-24T14:08:53.887Z,3.03
2023-04-24T14:11:21.129Z,2.87
2023-04-24T14:13:49.131Z,1.23
2023-04-24T14:16:16.153Z,1.42
2023-04-24T14:18:43.028Z,3.03
2023-04-24T14:21:09.911Z,1.58
2023-04-24T14:23:36.773Z,2.30
2023-04-24T14:26:03.846Z,1.33
2023-04-24T14:28:30.690Z,1.05
2023-04-24T14:30:57.672Z,1.83
2023-04-24T14:33:24.569Z,2.37
2023-04-24T14:35:51.426Z,1.67
2023-04-24T14:38:18.413Z,3.53
2023-04-24T14:41:05.375Z,1.27
2023-04-24T14:43:32.177Z,1.93
2023-04-24T14:45:59.118Z,1.00
2023-04-24T14:48:27.976Z,1.65
2023-04-24T14:50:54.885Z,0.82
2023-04-24T14:53:22.260Z,1.25
2023-04-24T14:55:49.167Z,2.17
2023-04-24T14:58:20.174Z,4.20
2023-04-24T15:00:47.052Z,1.75
2023-04-24T15:03:14.106Z,1.25
2023-04-24T15:05:41.255Z,2.80
2023-04-24T15:08:50.625Z,1.50
2023-04-24T15:11:18.210Z,2.08
2023-04-24T15:13:46.915Z,1.75
2023-04-24T15:16:14.305Z,1.83
2023-04-24T15:18:54.498Z,1.48
2023-04-24T15:21:21.542Z,2.37
2023-04-24T15:23:48.741Z,2.47
2023-04-24T15:26:16.052Z,1.90
2023-04-24T15:32:24.117Z,0.90
2023-04-24T15:34:56.866Z,1.85
2023-04-24T15:37:32.126Z,2.30
2023-04-24T15:40:14.349Z,3.10
2023-04-24T15:42:41.828Z,1.35
2023-04-24T15:45:09.554Z,1.05
2023-04-24T15:47:36.635Z,1.27
2023-04-24T15:53:32.299Z,1.50
2023-04-24T15:55:59.224Z,2.72
2023-04-24T16:02:09.794Z,2.53
2023-04-24T16:04:36.860Z,6.62
2023-04-24T16:07:03.938Z,1.98
2023-04-24T16:10:19.990Z,2.62
2023-04-24T16:12:46.947Z,5.47
2023-04-24T16:15:13.825Z,0.80
2023-04-24T16:17:40.794Z,1.83
2023-04-24T16:20:08.261Z,2.85
2023-04-24T16:22:35.224Z,1.73
2023-04-24T16:25:02.447Z,1.42
2023-04-24T16:27:29.341Z,1.37
2023-04-24T16:30:30.349Z,4.97
2023-04-24T16:32:57.354Z,2.97
2023-04-24T16:35:24.260Z,2.75
2023-04-24T16:44:24.711Z,1.87
2023-04-24T16:46:52.105Z,2.03
2023-04-24T16:50:14.239Z,7.47
2023-04-24T16:52:41.162Z,2.10
2023-04-24T16:55:09.115Z,4.12
2023-04-24T16:57:35.974Z,2.10
2023-04-24T17:00:23.300Z,2.10
2023-04-24T17:02:50.676Z,5.10
2023-04-24T17:05:19.522Z,2.33
2023-04-24T17:07:46.390Z,3.55
2023-04-24T17:10:13.263Z,1.33
2023-04-24T17:12:40.173Z,2.28
2023-04-24T17:15:07.609Z,2.62
2023-04-24T17:17:34.555Z,1.83
2023-04-24T17:20:32.752Z,1.20
2023-04-24T17:22:59.920Z,2.47
2023-04-24T17:25:26.820Z,2.00
2023-04-24T17:28:16.589Z,1.52
2023-04-24T17:30:43.469Z,2.65
2023-04-24T17:33:10.356Z,2.55
2023-04-24T17:35:37.318Z,3.42
2023-04-24T17:38:42.074Z,1.70
2023-04-24T17:41:09.057Z,2.22
2023-04-24T17:43:35.992Z,2.10
2023-04-24T17:46:02.893Z,3.25
2023-04-24T17:48:32.964Z,1.30
2023-04-24T17:50:59.863Z,2.85
2023-04-24T17:53:26.731Z,2.12
2023-04-24T17:55:54.552Z,1.75
2023-04-24T18:01:24.737Z,2.83
2023-04-24T18:03:51.837Z,1.83
2023-04-24T18:06:19.465Z,2.00
2023-04-24T18:08:46.661Z,1.95
2023-04-24T18:11:13.700Z,3.03
2023-04-24T18:13:43.181Z,1.73
2023-04-24T18:16:10.114Z,1.83
2023-04-24T18:18:58.904Z,1.50
2023-04-24T18:21:25.823Z,1.77
2023-04-24T18:23:52.764Z,3.10
2023-04-24T18:26:19.654Z,2.60
2023-04-24T18:29:23.662Z,2.65
2023-04-24T18:31:50.793Z,1.08
2023-04-24T18:34:17.805Z,1.95
2023-04-24T18:36:44.702Z,1.25
2023-04-24T18:39:14.127Z,2.08
2023-04-24T18:41:41.004Z,1.67
2023-04-24T18:44:07.924Z,1.15
2023-04-24T18:46:38.072Z,2.70
2023-04-24T18:49:12.063Z,1.40
2023-04-24T18:51:52.582Z,0.82
2023-04-24T18:54:21.056Z,1.42
2023-04-24T18:56:47.983Z,2.20
2023-04-24T18:59:15.964Z,2.35
2023-04-24T19:01:42.925Z,4.00
2023-04-24T19:04:09.884Z,2.67
2023-04-24T19:06:36.757Z,2.92
2023-04-24T19:12:32.268Z,2.78
2023-04-24T19:15:00.344Z,2.62
2023-04-24T19:17:27.446Z,4.47
2023-04-24T19:19:56.323Z,2.87
2023-04-24T19:22:23.578Z,3.55
2023-04-24T19:24:50.398Z,3.30
2023-04-24T19:29:57.198Z,2.85
2023-04-24T19:32:24.215Z,3.00
2023-04-24T19:34:51.321Z,4.97
2023-04-24T19:37:18.224Z,3.37
2023-04-24T19:40:08.853Z,2.17
2023-04-24T19:42:43.308Z,2.28
2023-04-24T19:45:14.841Z,3.17
2023-04-24T19:47:41.849Z,3.20
2023-04-24T19:50:09.813Z,3.78
2023-04-24T19:52:36.684Z,1.37
2023-04-24T19:55:03.963Z,1.55
2023-04-24T19:57:31.302Z,1.70
2023-04-24T20:03:25.521Z,1.92
2023-04-24T20:05:59.398Z,1.23
2023-04-24T20:08:34.042Z,1.83
2023-04-24T20:11:01.262Z,2.03
2023-04-24T20:13:28.340Z,1.42
2023-04-24T20:15:55.335Z,1.70
2023-04-24T20:19:09.251Z,2.70
2023-04-24T20:21:36.357Z,1.75
2023-04-24T20:24:04.530Z,1.42
2023-04-24T20:26:31.482Z,1.52
2023-04-24T20:29:27.575Z,1.87
2023-04-24T20:31:54.642Z,1.73
2023-04-24T20:34:22.192Z,1.67
2023-04-24T20:36:49.842Z,1.45
2023-04-24T20:39:19.860Z,1.50
2023-04-24T20:41:47.697Z,2.20
2023-04-24T20:44:14.564Z,1.25
2023-04-24T20:46:41.494Z,1.55
2023-04-24T20:49:49.363Z,2.97
2023-04-24T20:52:16.476Z,3.08
2023-04-24T20:54:43.342Z,2.80
2023-04-24T20:57:10.624Z,2.78
2023-04-24T20:59:39.669Z,2.28
2023-04-24T21:02:06.831Z,5.20
2023-04-24T21:04:37.602Z,3.35
2023-04-24T21:07:04.705Z,4.12
2023-04-24T21:09:35.718Z,2.65
2023-04-24T21:12:03.019Z,2.83
2023-04-24T21:14:29.851Z,3.20
2023-04-24T21:16:58.563Z,4.07
2023-04-24T21:19:31.556Z,3.95
2023-04-24T21:21:58.429Z,4.12
2023-04-24T21:24:25.302Z,3.03
2023-04-24T21:26:52.190Z,4.18
2023-04-24T21:32:47.079Z,3.22
2023-04-24T21:35:13.958Z,5.35
2023-04-24T21:37:41.173Z,4.20
2023-04-24T21:40:10.996Z,6.70
2023-04-24T21:42:38.846Z,4.22
2023-04-24T21:45:06.577Z,3.80
2023-04-24T21:47:33.517Z,5.37
2023-04-24T21:50:08.124Z,3.47
2023-04-24T21:52:34.952Z,3.53
2023-04-24T21:57:29.510Z,2.53
2023-04-24T22:00:20.254Z,2.95
2023-04-24T22:02:47.467Z,5.32
2023-04-24T22:05:17.537Z,4.00
2023-04-24T22:07:45.154Z,4.95
2023-04-24T22:10:16.247Z,5.72
2023-04-24T22:12:43.986Z,5.07
2023-04-24T22:15:10.982Z,3.90
2023-04-24T22:17:39.126Z,2.75
2023-04-24T22:20:07.581Z,4.93
2023-04-24T22:22:35.470Z,3.40
2023-04-24T22:25:02.332Z,4.47
2023-04-24T22:27:29.221Z,6.00
2023-04-24T22:33:13.908Z,7.97
2023-04-24T22:35:40.752Z,3.05
2023-04-24T22:38:24.101Z,4.03
2023-04-24T22:40:51.072Z,4.03
2023-04-24T22:43:17.960Z,3.05
2023-04-24T22:45:44.869Z,3.42
2023-04-24T22:48:30.660Z,3.47
2023-04-24T22:50:57.545Z,4.30
2023-04-24T22:53:24.478Z,6.05
2023-04-24T22:55:51.421Z,4.43
2023-04-24T22:58:18.328Z,3.22
2023-04-24T23:00:45.204Z,3.83
2023-04-24T23:03:12.303Z,4.32
2023-04-24T23:05:39.287Z,5.10
2023-04-24T23:08:38.096Z,4.18
2023-04-24T23:11:04.997Z,3.67
2023-04-24T23:13:31.944Z,4.07
2023-04-24T23:15:58.820Z,4.05
2023-04-24T23:18:26.732Z,4.55
2023-04-24T23:20:53.760Z,5.18
2023-04-24T23:23:20.601Z,7.10
2023-04-24T23:28:42.676Z,3.70
2023-04-24T23:31:09.566Z,3.35
2023-04-24T23:33:36.465Z,5.15
2023-04-24T23:36:03.465Z,3.50
2023-04-24T23:38:36.726Z,4.20
2023-04-24T23:41:13.796Z,5.00
2023-04-24T23:43:40.683Z,3.22
2023-04-24T23:46:07.588Z,4.50
2023-04-24T23:49:07.655Z,5.53
2023-04-24T23:51:34.538Z,3.97
2023-04-24T23:54:01.546Z,5.40
2023-04-24T23:56:29.422Z,3.83
2023-04-24T23:59:06.177Z,5.90
